Terminal Aerodrome Forecast
Issued by NWS Rapid City, SD

Home | Current Version | Previous Version | Graphics & Text | Print | Product List | Glossary On
Versions: 1 2 3 4 5 6 7 8 9 10 11 12 13 14 15 16 17 18 19
000
FTUS43 KUNR 151120
TAFRAP
TAF
KRAP 151120Z 1512/1612 34012KT P6SM OVC100
     FM151500 34015G25KT P6SM BKN015 OVC070
     FM151600 36025G35KT 1SM -SN VV008
      TEMPO 1518/1522 1/2SM -SN BLSN
     FM152200 35020G30KT 2SM BLSN BKN025
     FM160100 34016KT P6SM BKN050=

USA.gov is the U.S. government's official web portal to all federal, state and local government web resources and services.